Time;durP1;ratioP1;P1;durP2;ratioP2;P2;SDS_P1;SDS_P2;PMS_P1;PMS_P2;Temp;Humidity;BMP_temperature;BMP_pressure;BME280_temperature;BME280_humidity;BME280_pressure;Samples;Min_cycle;Max_cycle;Signal;HPM_P1;HPM_P2
2023/02/19 00:01:42;;;;;;;8.77;7.93;;;9.40;91.40;;;9.12;78.51;98293.19;5050985;28;20426;-78
2023/02/19 00:04:14;;;;;;;7.43;6.73;;;9.40;91.60;;;9.15;79.29;98308.97;5067910;28;20449;-77
2023/02/19 00:06:43;;;;;;;7.73;6.80;;;9.40;91.80;;;9.15;79.13;98287.38;5081828;28;20845;-80
2023/02/19 00:09:11;;;;;;;7.00;6.30;;;9.40;91.60;;;8.98;79.89;98287.72;5077591;28;20556;-79
2023/02/19 00:11:40;;;;;;;6.97;6.27;;;9.30;91.90;;;8.96;79.93;98267.41;5051726;28;20513;-79
2023/02/19 00:14:08;;;;;;;6.60;5.97;;;9.30;92.30;;;8.95;79.80;98289.97;5054355;28;20462;-81
2023/02/19 00:16:39;;;;;;;6.27;5.60;;;9.30;92.40;;;8.85;80.25;98288.47;5069627;28;20461;-79
2023/02/19 00:19:10;;;;;;;6.80;6.10;;;9.20;92.30;;;8.98;80.37;98292.28;5062997;28;20458;-79
2023/02/19 00:21:38;;;;;;;6.53;5.93;;;9.20;92.60;;;8.84;80.93;98284.13;5063282;28;20467;-82
2023/02/19 00:24:08;;;;;;;6.17;5.40;;;9.20;92.80;;;8.89;81.07;98278.16;5063258;28;20772;-82
2023/02/19 00:26:35;;;;;;;5.80;5.30;;;9.20;93.20;;;8.47;79.83;98206.16;5051951;28;20800;-84
2023/02/19 00:29:04;;;;;;;5.77;5.23;;;9.20;93.20;;;9.04;80.35;98286.94;5055992;28;20452;-81
2023/02/19 00:31:34;;;;;;;5.00;4.53;;;9.20;93.40;;;8.95;80.47;98281.88;5065408;28;20473;-83
2023/02/19 00:34:03;;;;;;;5.40;4.90;;;9.10;93.50;;;8.93;81.18;98284.81;5055399;28;20447;-81
2023/02/19 00:36:34;;;;;;;5.60;5.10;;;9.10;94.10;;;8.82;82.86;98269.19;5045851;28;20459;-83
2023/02/19 00:39:02;;;;;;;6.13;5.60;;;9.10;95.10;;;8.72;83.24;98262.31;5053424;28;20450;-82
2023/02/19 00:41:29;;;;;;;5.53;5.03;;;9.00;96.10;;;8.54;83.86;98251.16;5047915;28;20464;-81
2023/02/19 00:44:00;;;;;;;6.30;5.80;;;9.00;96.70;;;8.63;85.37;98271.56;5055818;28;20454;-82
2023/02/19 00:46:34;;;;;;;7.33;6.63;;;8.90;98.80;;;8.68;85.51;98266.41;5072269;28;20448;-82
2023/02/19 00:49:02;;;;;;;5.83;5.27;;;8.90;99.90;;;8.58;86.71;98279.41;5054758;28;20503;-81
2023/02/19 00:51:32;;;;;;;6.53;5.93;;;8.80;99.90;;;8.54;87.38;98275.41;5049801;28;20577;-81
2023/02/19 00:54:01;;;;;;;6.67;5.90;;;8.80;99.90;;;8.48;88.01;98253.59;5052523;28;20454;-79
2023/02/19 00:56:30;;;;;;;6.97;6.37;;;8.80;99.90;;;8.40;88.55;98261.81;5049546;28;20455;-81
2023/02/19 00:58:57;;;;;;;6.57;5.97;;;8.70;99.90;;;8.48;87.12;98266.22;5069583;28;20450;-81
2023/02/19 01:01:25;;;;;;;6.73;6.10;;;8.70;99.90;;;8.42;88.28;98275.94;5053764;28;20444;-82
2023/02/19 01:03:54;;;;;;;8.30;6.90;;;8.70;99.90;;;8.28;88.63;98255.31;5052132;28;20976;-81
2023/02/19 01:06:22;;;;;;;5.90;5.40;;;8.60;99.90;;;8.23;89.69;98237.06;5052601;28;20460;-83
2023/02/19 01:08:52;;;;;;;7.57;6.87;;;8.60;99.90;;;8.24;90.05;98238.72;5075627;28;20463;-83
2023/02/19 01:11:20;;;;;;;7.20;6.50;;;8.60;99.90;;;8.22;90.03;98240.78;5047040;28;20471;-82
2023/02/19 01:13:47;;;;;;;8.53;6.07;;;8.50;99.90;;;8.01;90.27;98220.09;5065398;28;20522;-82
2023/02/19 01:16:21;;;;;;;7.07;6.47;;;8.50;99.90;;;8.22;89.42;98233.53;5050372;28;20486;-81
2023/02/19 01:18:49;;;;;;;8.67;7.80;;;8.50;99.90;;;8.11;89.57;98217.06;5069204;28;20452;-82
2023/02/19 01:21:21;;;;;;;7.20;6.50;;;8.50;99.90;;;8.27;89.19;98240.19;5052156;28;20560;-79
2023/02/19 01:23:49;;;;;;;7.03;6.40;;;8.50;99.90;;;8.25;89.29;98247.59;5050566;28;20462;-81
2023/02/19 01:26:20;;;;;;;7.17;6.50;;;8.50;99.90;;;8.30;88.68;98237.94;5074172;28;20487;-78
2023/02/19 01:28:48;;;;;;;8.47;6.77;;;8.60;99.90;;;8.23;88.80;98216.34;5055451;28;20517;-83
2023/02/19 01:31:18;;;;;;;7.13;6.43;;;8.60;99.90;;;8.29;88.79;98240.84;5050148;28;20453;-83
2023/02/19 01:33:47;;;;;;;7.00;6.40;;;8.60;99.90;;;8.37;89.10;98232.59;5052196;28;20498;-82
2023/02/19 01:36:19;;;;;;;7.60;6.90;;;8.50;99.90;;;8.25;88.73;98202.69;5052226;28;20531;-82
2023/02/19 01:38:47;;;;;;;7.80;7.10;;;8.50;99.90;;;8.33;88.33;98201.72;5066177;28;20471;-80
2023/02/19 01:41:17;;;;;;;6.97;6.37;;;8.60;99.90;;;8.37;88.39;98202.97;5052347;28;20637;-81
2023/02/19 01:44:01;;;;;;;7.63;6.93;;;8.60;99.90;;;8.30;88.81;98204.81;5047883;28;21201;-80
2023/02/19 01:46:31;;;;;;;8.20;7.40;;;8.60;99.90;;;8.28;88.60;98188.03;5045800;28;20454;-79
2023/02/19 01:49:02;;;;;;;7.57;6.93;;;8.60;99.90;;;8.31;88.39;98190.31;5055709;28;20936;-79
2023/02/19 01:51:32;;;;;;;7.67;6.87;;;8.60;99.90;;;8.29;89.35;98197.75;5076839;28;20471;-77
2023/02/19 01:54:05;;;;;;;8.07;7.23;;;8.50;99.90;;;8.25;88.68;98183.00;5047303;28;20465;-81
2023/02/19 01:56:37;;;;;;;7.77;7.07;;;8.60;99.90;;;8.14;88.55;98179.84;5040195;28;20472;-79
2023/02/19 01:59:06;;;;;;;8.00;7.30;;;8.50;99.90;;;8.16;89.68;98175.09;5062309;28;20954;-80
2023/02/19 02:01:34;;;;;;;8.70;7.83;;;8.50;99.90;;;7.88;89.17;98138.25;5051057;28;20456;-80
2023/02/19 02:04:02;;;;;;;7.80;7.00;;;8.50;99.90;;;8.05;89.54;98160.31;5049024;28;20468;-81
2023/02/19 02:06:34;;;;;;;8.57;7.70;;;8.50;99.90;;;8.21;89.26;98185.28;5049621;28;20941;-81
2023/02/19 02:11:49;;;;;;;8.27;7.47;;;8.50;99.90;;;8.27;89.40;98183.66;5047817;28;20493;-80
2023/02/19 02:14:20;;;;;;;8.20;7.40;;;8.50;99.90;;;7.81;89.20;98110.47;5040265;28;20469;-81
2023/02/19 02:16:57;;;;;;;7.40;6.70;;;8.50;99.90;;;8.26;88.94;98182.81;5051680;28;20491;-82
2023/02/19 02:20:01;;;;;;;7.93;6.93;;;8.50;99.90;;;8.26;88.47;98184.66;5055611;28;20461;-81
2023/02/19 02:22:36;;;;;;;8.10;6.97;;;8.50;99.90;;;8.32;88.55;98191.97;5054542;28;20530;-81
2023/02/19 02:25:33;;;;;;;7.10;6.43;;;8.50;99.90;;;8.35;88.16;98175.41;5061171;28;21043;-82
2023/02/19 02:28:22;;;;;;;6.63;6.00;;;8.50;99.90;;;8.29;88.11;98170.84;5049509;28;20521;-82
2023/02/19 02:30:54;;;;;;;7.20;5.87;;;8.50;99.90;;;8.32;87.97;98170.44;5067923;28;20446;-80
2023/02/19 02:33:31;;;;;;;5.73;5.23;;;8.50;99.90;;;8.14;87.83;98152.94;5051794;28;20530;-81
2023/02/19 02:36:05;;;;;;;7.93;6.10;;;8.60;99.90;;;8.40;87.52;98178.34;5056244;28;20536;-80
2023/02/19 02:38:38;;;;;;;6.27;5.67;;;8.60;99.90;;;8.28;87.66;98164.59;5064685;28;20479;-80
2023/02/19 02:41:06;;;;;;;6.00;5.40;;;8.50;99.90;;;8.05;87.07;98105.66;5058083;28;20463;-81
2023/02/19 02:43:34;;;;;;;6.00;5.40;;;8.60;99.90;;;8.32;88.17;98162.38;5073766;28;20784;-84
2023/02/19 02:46:06;;;;;;;5.90;5.40;;;8.60;99.90;;;8.36;87.79;98160.94;5031377;28;20479;-82
2023/02/19 02:48:40;;;;;;;6.17;5.60;;;8.60;99.90;;;8.35;87.84;98159.28;5049185;28;20435;-82
2023/02/19 02:51:17;;;;;;;8.17;5.23;;;8.60;99.90;;;8.36;87.94;98174.38;5034972;28;20451;-83
2023/02/19 02:56:39;;;;;;;5.60;5.10;;;8.60;99.90;;;8.39;87.78;98144.38;5065828;28;20455;-83
2023/02/19 02:59:11;;;;;;;4.63;4.23;;;8.50;99.90;;;8.23;87.00;98130.19;5048225;28;20452;-83
2023/02/19 03:05:50;;;;;;;4.97;4.47;;;8.60;99.90;;;8.04;87.26;98087.84;5048387;28;20502;-81
2023/02/19 03:07:31;;;;;;;5.47;4.97;;;8.60;99.90;;;8.01;86.89;98078.31;5044991;28;20502;-84
2023/02/19 03:10:01;;;;;;;5.10;4.60;;;8.60;99.90;;;8.21;86.70;98110.72;5054367;28;20478;-81
2023/02/19 03:20:59;;;;;;;4.83;4.43;;;8.70;99.10;;;8.04;85.91;98082.47;5062185;28;20444;-83
2023/02/19 03:26:20;;;;;;;4.20;3.80;;;8.70;98.00;;;8.46;85.22;98134.50;5032499;28;20459;-80
2023/02/19 03:31:39;;;;;;;5.10;4.60;;;8.70;97.40;;;8.07;84.73;98082.91;5058295;28;20876;-83
2023/02/19 03:34:15;;;;;;;5.80;4.67;;;8.70;97.10;;;8.47;85.12;98140.69;5063604;28;20446;-82
2023/02/19 03:36:50;;;;;;;4.60;4.20;;;8.70;96.80;;;7.95;84.95;98068.34;5052668;28;20447;-84
2023/02/19 03:39:23;;;;;;;5.50;5.00;;;8.70;96.80;;;8.41;84.80;98120.78;5054485;28;20425;-84
2023/02/19 03:42:00;;;;;;;4.67;4.20;;;8.70;96.80;;;8.48;84.58;98139.66;5047555;28;20490;-82
2023/02/19 03:44:40;;;;;;;4.60;3.67;;;8.70;96.60;;;8.11;83.71;98061.00;5047265;28;20573;-83
2023/02/19 03:47:20;;;;;;;4.87;4.40;;;8.80;95.90;;;7.82;83.81;98026.06;5064227;28;20509;-85
2023/02/19 03:49:55;;;;;;;4.67;4.27;;;8.70;95.90;;;8.52;84.57;98127.50;5058353;28;20458;-83
2023/02/19 03:52:35;;;;;;;5.20;4.70;;;8.70;96.20;;;8.43;84.00;98107.13;5068345;28;20472;-85
2023/02/19 03:55:07;;;;;;;4.90;4.47;;;8.70;96.00;;;8.58;83.37;98120.50;5070810;28;20439;-83
2023/02/19 03:57:49;;;;;;;5.00;4.50;;;8.80;95.10;;;8.53;83.18;98125.63;5065659;28;20482;-82
2023/02/19 04:00:21;;;;;;;5.00;4.50;;;8.80;94.60;;;8.27;83.92;98098.34;5068171;28;20468;-83
2023/02/19 04:02:56;;;;;;;4.20;3.90;;;8.80;94.60;;;8.42;83.08;98108.16;5069853;28;20452;-85
2023/02/19 04:05:27;;;;;;;5.10;4.70;;;8.80;94.60;;;8.47;83.54;98105.69;5049440;28;20446;-80
2023/02/19 04:07:59;;;;;;;5.10;4.70;;;8.70;95.10;;;8.52;83.39;98123.97;5050901;28;20445;-78
2023/02/19 04:10:28;;;;;;;4.77;4.27;;;8.70;95.10;;;8.40;82.90;98091.38;5047874;28;20514;-77
2023/02/19 04:13:02;;;;;;;4.60;4.20;;;8.70;94.90;;;8.41;82.92;98115.38;5047706;28;20484;-81
2023/02/19 04:15:33;;;;;;;3.90;3.60;;;8.70;94.70;;;8.51;83.17;98131.22;5046675;28;20488;-76
2023/02/19 04:18:07;;;;;;;4.33;3.93;;;8.80;94.30;;;8.55;83.06;98137.03;5050423;28;20465;-81
2023/02/19 04:20:42;;;;;;;4.70;4.30;;;8.80;94.70;;;8.38;82.66;98109.59;5052864;28;20440;-83
2023/02/19 04:23:10;;;;;;;4.03;3.73;;;8.80;94.20;;;8.42;82.61;98140.47;5054510;28;20962;-80
2023/02/19 04:25:43;;;;;;;3.90;3.60;;;8.80;94.10;;;8.39;83.11;98128.22;5079286;28;20487;-79
2023/02/19 04:28:13;;;;;;;4.90;4.50;;;8.80;94.30;;;8.53;83.06;98149.88;5047278;28;20455;-81
2023/02/19 04:30:41;;;;;;;6.83;4.20;;;8.80;94.20;;;8.60;82.76;98143.50;5073288;28;20455;-79
2023/02/19 04:33:09;;;;;;;4.67;4.27;;;8.80;94.00;;;8.53;82.90;98141.78;5059161;28;20465;-81
2023/02/19 04:35:40;;;;;;;4.37;4.07;;;8.80;93.90;;;8.52;82.61;98132.06;5068062;28;20458;-83
2023/02/19 04:38:08;;;;;;;4.40;4.00;;;8.80;94.20;;;8.58;82.06;98147.44;5054604;28;20450;-81
2023/02/19 04:40:35;;;;;;;5.40;4.90;;;8.80;94.00;;;8.52;82.36;98134.75;5050660;28;20500;-82
2023/02/19 04:43:03;;;;;;;4.47;4.07;;;8.80;93.80;;;8.47;82.99;98133.47;5054918;28;20542;-82
2023/02/19 04:45:30;;;;;;;4.47;4.07;;;8.80;93.90;;;8.58;83.00;98142.03;5051025;28;20457;-79
2023/02/19 04:47:59;;;;;;;4.90;4.50;;;8.80;94.40;;;8.33;82.11;98123.63;5068506;28;21158;-80
2023/02/19 04:50:26;;;;;;;4.77;4.33;;;8.80;93.60;;;8.42;82.42;98122.47;5047428;28;20463;-81
2023/02/19 04:52:55;;;;;;;4.00;3.70;;;8.80;94.00;;;8.29;82.84;98127.78;5056809;28;20486;-80
2023/02/19 04:55:22;;;;;;;4.30;3.90;;;8.80;93.50;;;8.49;82.15;98154.78;5047816;28;20460;-81
2023/02/19 04:57:50;;;;;;;4.80;4.40;;;8.80;93.50;;;8.57;82.10;98159.19;5063421;28;20960;-80
2023/02/19 05:00:19;;;;;;;4.97;4.57;;;8.80;93.40;;;8.52;82.35;98170.59;5044044;28;20456;-80
2023/02/19 05:02:47;;;;;;;4.27;3.90;;;8.80;93.50;;;8.30;82.05;98140.19;5061936;28;20461;-79
2023/02/19 05:05:17;;;;;;;5.00;4.50;;;8.80;93.30;;;8.46;81.82;98150.66;5061367;28;20467;-79
2023/02/19 05:07:44;;;;;;;4.40;4.00;;;8.80;93.20;;;8.56;82.24;98160.25;5062350;28;20445;-78
2023/02/19 05:10:13;;;;;;;4.67;4.27;;;8.80;93.40;;;8.48;82.32;98155.81;5055102;28;20496;-79
2023/02/19 05:12:42;;;;;;;4.70;4.30;;;8.80;93.90;;;8.48;82.00;98158.50;5068781;28;20471;-80
2023/02/19 05:15:09;;;;;;;5.60;3.90;;;8.70;93.70;;;8.49;81.83;98138.63;5067173;28;20472;-80
2023/02/19 05:17:36;;;;;;;3.93;3.63;;;8.80;93.20;;;8.43;81.71;98147.50;5056679;28;20931;-77
2023/02/19 05:20:04;;;;;;;3.83;3.43;;;8.80;92.90;;;8.54;81.39;98151.53;5056100;28;20437;-80
2023/02/19 05:22:32;;;;;;;4.00;3.70;;;8.80;93.10;;;8.59;80.75;98149.91;5053399;28;20468;-79
2023/02/19 05:24:59;;;;;;;4.03;3.73;;;8.80;92.80;;;8.47;80.99;98136.16;5049222;28;20750;-81
2023/02/19 05:27:30;;;;;;;4.07;3.67;;;8.80;92.90;;;8.62;80.73;98146.00;5051349;28;20445;-78
2023/02/19 05:29:57;;;;;;;3.23;3.00;;;8.80;92.60;;;8.69;80.24;98143.34;5052400;28;20448;-78
2023/02/19 05:32:25;;;;;;;3.43;3.13;;;8.90;92.40;;;8.63;80.65;98136.88;5056210;28;20806;-80
2023/02/19 05:34:52;;;;;;;2.90;2.57;;;8.90;92.10;;;8.52;79.63;98122.13;5069900;28;20450;-79
2023/02/19 05:37:19;;;;;;;2.80;2.60;;;8.90;91.60;;;8.66;79.01;98149.94;5078613;28;20446;-78
2023/02/19 05:39:48;;;;;;;3.17;2.87;;;8.90;91.50;;;8.38;79.36;98077.28;5061496;28;20504;-78
2023/02/19 05:42:15;;;;;;;2.70;2.50;;;8.90;91.80;;;8.58;79.81;98125.88;5055184;28;20950;-78
2023/02/19 05:44:45;;;;;;;2.97;2.77;;;8.90;91.40;;;8.73;79.29;98139.19;5069504;28;20455;-78
2023/02/19 05:47:12;;;;;;;2.83;2.63;;;8.90;91.60;;;8.74;78.68;98146.25;5053717;28;20453;-79
2023/02/19 05:49:39;;;;;;;2.90;2.70;;;8.90;91.20;;;8.64;78.76;98157.41;5067819;28;20463;-79
2023/02/19 05:52:07;;;;;;;2.80;2.60;;;8.90;91.00;;;8.70;79.05;98161.97;5074687;28;20441;-80
2023/02/19 05:54:34;;;;;;;2.80;2.17;;;8.90;91.10;;;8.73;78.71;98166.13;5069518;28;20460;-79
2023/02/19 05:57:02;;;;;;;2.63;2.17;;;8.90;91.00;;;8.79;78.90;98171.56;5065815;28;20440;-79
2023/02/19 05:59:29;;;;;;;3.50;2.40;;;9.00;91.10;;;8.54;78.43;98124.59;5079968;28;20448;-79
2023/02/19 06:02:05;;;;;;;3.00;2.70;;;9.00;90.90;;;8.68;79.09;98164.03;5074485;28;20509;-78
2023/02/19 06:04:33;;;;;;;2.33;2.10;;;9.00;91.20;;;8.56;78.77;98161.09;5054919;28;20451;-79
2023/02/19 06:07:00;;;;;;;2.20;2.00;;;8.90;90.80;;;8.60;78.89;98162.34;5084646;28;20449;-79
2023/02/19 06:09:28;;;;;;;2.17;1.97;;;9.00;90.90;;;8.77;77.85;98184.41;5051194;28;20540;-78
2023/02/19 06:11:55;;;;;;;2.40;2.20;;;9.00;90.60;;;8.67;78.99;98173.16;5051460;28;20553;-79
2023/02/19 06:14:24;;;;;;;2.40;2.20;;;9.00;90.90;;;8.69;79.88;98181.84;5050813;28;20557;-81
2023/02/19 06:16:52;;;;;;;3.13;2.90;;;8.90;91.70;;;7.82;80.29;98062.88;5064291;28;20640;-81
2023/02/19 06:19:20;;;;;;;2.73;2.53;;;8.90;92.50;;;8.41;81.82;98179.19;5062309;28;20462;-78
2023/02/19 06:21:50;;;;;;;2.47;2.27;;;8.80;93.10;;;8.26;82.12;98160.44;5066241;28;20523;-79
2023/02/19 06:24:17;;;;;;;2.63;2.43;;;8.70;93.30;;;8.32;81.72;98181.22;5055575;28;20455;-79
2023/02/19 06:26:45;;;;;;;2.73;2.43;;;8.70;93.20;;;8.28;81.65;98142.25;5049189;28;20464;-79
2023/02/19 06:29:12;;;;;;;2.67;2.47;;;8.80;93.20;;;8.49;81.65;98193.31;5032020;28;20452;-78
2023/02/19 06:31:40;;;;;;;3.43;2.70;;;8.80;93.20;;;8.43;81.99;98186.06;5046836;28;21021;-80
2023/02/19 06:34:07;;;;;;;2.80;2.60;;;8.70;93.60;;;8.29;81.41;98176.22;5040034;28;20487;-80
2023/02/19 06:36:36;;;;;;;2.60;2.40;;;8.70;93.20;;;8.26;81.18;98155.06;5062611;28;20965;-80
2023/02/19 06:39:05;;;;;;;2.93;2.73;;;8.70;93.00;;;8.42;81.05;98183.53;5042157;28;20457;-77
2023/02/19 06:41:33;;;;;;;3.70;2.70;;;8.80;92.60;;;8.36;80.85;98182.47;5048432;28;20940;-84
2023/02/19 06:44:00;;;;;;;2.80;2.20;;;8.80;92.10;;;8.41;80.37;98184.56;5041662;28;20452;-79
2023/02/19 06:46:27;;;;;;;2.47;2.27;;;8.80;92.10;;;8.58;80.52;98206.69;5065763;28;21021;-78
2023/02/19 06:48:55;;;;;;;3.20;2.37;;;8.90;91.90;;;8.50;80.30;98208.47;5053069;28;20473;-80
2023/02/19 06:51:25;;;;;;;2.40;2.20;;;8.80;92.20;;;8.54;80.12;98217.00;5043723;28;20455;-81
2023/02/19 06:53:53;;;;;;;2.83;2.63;;;8.80;92.10;;;8.54;79.76;98217.00;5064612;28;20587;-82
2023/02/19 06:56:25;;;;;;;2.93;2.20;;;8.80;91.90;;;8.51;79.93;98214.72;5037140;28;20459;-79
2023/02/19 06:58:53;;;;;;;2.60;2.40;;;8.80;92.00;;;8.45;80.18;98219.00;5043164;28;20548;-80
2023/02/19 07:01:21;;;;;;;2.90;2.60;;;8.90;91.80;;;8.57;79.38;98222.00;5060619;28;20471;-82
2023/02/19 07:03:48;;;;;;;2.03;1.90;;;8.90;91.40;;;8.54;79.17;98205.38;5056554;28;20461;-80
2023/02/19 07:06:16;;;;;;;2.00;1.80;;;8.90;91.10;;;8.33;78.61;98193.63;5041551;28;20529;-80
2023/02/19 07:08:43;;;;;;;1.87;1.77;;;8.90;90.80;;;8.66;78.63;98232.63;5048657;28;20456;-81
2023/02/19 07:11:11;;;;;;;1.93;1.83;;;8.90;91.00;;;8.72;77.49;98223.75;5051567;28;20446;-80
2023/02/19 07:13:40;;;;;;;3.33;2.20;;;9.00;90.40;;;8.59;77.20;98209.16;5047290;28;20504;-77
2023/02/19 07:16:09;;;;;;;1.73;1.63;;;9.00;90.30;;;8.88;77.58;98236.88;5043604;28;20453;-74
2023/02/19 07:18:38;;;;;;;1.83;1.73;;;9.20;90.10;;;9.05;76.76;98232.00;5058889;28;20453;-75
2023/02/19 07:21:08;;;;;;;1.90;1.80;;;9.20;90.00;;;9.05;76.69;98236.56;5042076;28;20455;-76
2023/02/19 07:23:36;;;;;;;2.27;2.07;;;9.30;89.30;;;8.97;76.15;98240.25;5057379;28;20452;-75
2023/02/19 07:26:03;;;;;;;1.53;1.43;;;9.30;88.60;;;8.97;75.63;98231.34;5041896;28;20471;-74
2023/02/19 07:28:32;;;;;;;1.20;1.10;;;9.30;87.70;;;8.98;75.39;98249.19;5038512;28;20459;-74
2023/02/19 07:31:03;;;;;;;1.33;1.23;;;9.30;87.30;;;9.01;75.94;98238.81;5049874;28;20460;-78
2023/02/19 07:33:31;;;;;;;2.10;1.77;;;9.40;87.60;;;9.16;75.21;98246.78;5052513;28;20475;-77
2023/02/19 07:35:58;;;;;;;1.93;1.73;;;9.50;87.50;;;9.20;74.99;98252.59;5046180;28;20457;-75
2023/02/19 07:38:26;;;;;;;2.20;2.00;;;9.50;87.10;;;9.33;75.04;98263.44;5068522;28;20460;-76
2023/02/19 07:40:56;;;;;;;1.77;1.67;;;9.60;87.00;;;9.20;75.60;98264.19;5057498;28;20454;-77
2023/02/19 07:43:24;;;;;;;1.53;1.43;;;9.60;86.60;;;9.29;75.34;98267.56;5060217;28;20937;-76
2023/02/19 07:45:53;;;;;;;1.97;1.87;;;9.60;86.80;;;9.31;74.63;98262.78;5058054;28;20539;-76
2023/02/19 07:48:20;;;;;;;1.90;1.80;;;9.60;86.80;;;9.16;74.40;98252.16;5038891;28;20682;-75
2023/02/19 07:50:51;;;;;;;1.80;1.70;;;9.60;86.50;;;9.23;74.26;98259.44;5058880;28;20499;-77
2023/02/19 07:53:19;;;;;;;1.80;1.70;;;9.60;86.20;;;9.20;74.83;98266.06;5042041;28;20581;-76
2023/02/19 07:55:46;;;;;;;2.20;2.00;;;9.50;86.30;;;9.25;74.58;98260.06;5037719;28;20464;-77
2023/02/19 07:58:14;;;;;;;1.80;1.70;;;9.60;86.30;;;9.05;74.32;98212.28;5060969;28;20449;-76
2023/02/19 08:00:41;;;;;;;2.27;1.50;;;9.60;86.00;;;9.38;73.67;98262.81;5081195;28;20471;-77
2023/02/19 08:03:09;;;;;;;2.97;2.00;;;9.70;85.70;;;9.61;73.48;98259.78;5071209;28;20448;-78
2023/02/19 08:05:39;;;;;;;2.37;2.17;;;9.80;85.60;;;9.75;73.24;98268.75;5058593;28;20447;-77
2023/02/19 08:08:08;;;;;;;1.60;1.50;;;9.90;85.90;;;9.64;72.78;98264.78;5044274;28;20980;-76
2023/02/19 08:13:25;;;;;;;3.67;1.97;;;10.00;83.80;;;9.59;72.92;98266.44;5060914;28;20566;-76
2023/02/19 08:15:53;;;;;;;2.00;1.80;;;9.90;85.00;;;9.83;72.43;98273.13;5045466;28;20457;-78
2023/02/19 08:18:25;;;;;;;1.83;1.73;;;10.00;83.90;;;9.79;71.84;98274.56;5050752;28;20609;-76
2023/02/19 08:20:53;;;;;;;1.73;1.63;;;10.10;83.70;;;9.87;72.81;98287.06;5054191;28;20928;-77
2023/02/19 08:23:20;;;;;;;2.50;2.30;;;10.10;84.10;;;9.63;72.95;98279.31;5047819;28;20471;-76
2023/02/19 08:25:49;;;;;;;1.40;1.30;;;10.00;83.60;;;9.10;72.92;98225.16;5047204;28;20447;-77
2023/02/19 08:28:18;;;;;;;1.70;1.60;;;9.80;84.30;;;9.62;72.21;98301.09;5044735;28;20531;-77
2023/02/19 08:30:47;;;;;;;2.20;1.77;;;9.80;84.40;;;9.75;72.19;98295.72;5059241;28;20459;-75
2023/02/19 08:33:18;;;;;;;1.73;1.63;;;9.90;84.20;;;9.65;71.67;98308.78;5046528;28;20478;-76
2023/02/19 08:35:47;;;;;;;3.40;1.40;;;10.00;82.90;;;9.55;71.86;98317.25;5054865;28;20543;-79
2023/02/19 08:38:16;;;;;;;1.80;1.70;;;9.90;83.70;;;9.74;71.90;98309.41;5050852;28;20461;-76
2023/02/19 08:40:44;;;;;;;1.70;1.60;;;10.00;83.10;;;9.83;71.38;98332.50;5044271;28;20948;-78
2023/02/19 08:43:13;;;;;;;1.90;1.47;;;10.00;82.70;;;9.57;72.72;98312.47;5044717;28;20460;-76
2023/02/19 08:45:44;;;;;;;2.20;1.43;;;10.00;82.80;;;9.57;71.72;98323.25;5045224;28;20465;-77
2023/02/19 08:48:12;;;;;;;1.70;1.50;;;9.90;83.90;;;9.56;71.97;98327.00;5046145;28;20530;-77
2023/02/19 08:50:39;;;;;;;1.27;1.07;;;9.90;83.80;;;9.60;71.38;98309.38;5047094;28;20440;-80
2023/02/19 08:53:08;;;;;;;1.30;1.20;;;10.00;82.80;;;9.70;71.19;98340.53;5063112;28;20452;-79
2023/02/19 08:55:38;;;;;;;1.50;1.40;;;10.00;82.30;;;9.74;71.11;98333.69;5042339;28;20867;-80
2023/02/19 08:58:05;;;;;;;1.20;0.97;;;10.00;82.30;;;9.50;70.67;98298.16;5044277;28;20447;-79
2023/02/19 09:00:33;;;;;;;1.37;0.90;;;10.10;82.30;;;9.66;70.33;98326.63;5049378;28;20540;-77
2023/02/19 09:03:00;;;;;;;1.13;1.03;;;10.00;82.10;;;9.74;70.81;98329.16;5040399;28;20455;-74
2023/02/19 09:05:28;;;;;;;1.00;0.90;;;10.10;82.10;;;9.66;71.21;98344.69;5043133;28;20807;-74
2023/02/19 09:07:55;;;;;;;1.20;1.10;;;10.10;82.10;;;9.69;71.27;98338.88;5045138;28;20468;-73
2023/02/19 09:10:24;;;;;;;1.73;1.20;;;10.10;82.20;;;9.74;71.87;98334.53;5059826;28;20464;-81
2023/02/19 09:12:51;;;;;;;1.33;1.23;;;10.10;82.40;;;9.80;71.59;98337.47;5042455;28;20462;-77
2023/02/19 09:15:18;;;;;;;1.17;1.07;;;10.10;82.30;;;10.05;70.75;98348.53;5059688;28;20825;-75
2023/02/19 09:17:45;;;;;;;2.63;1.57;;;10.30;82.50;;;10.12;70.70;98353.94;5046388;28;20503;-71
2023/02/19 09:20:13;;;;;;;2.20;1.67;;;10.40;82.30;;;9.86;70.05;98326.69;5040587;28;20463;-76
2023/02/19 09:22:40;;;;;;;1.27;1.03;;;10.40;81.90;;;9.98;70.80;98366.59;5049367;28;20800;-81
2023/02/19 09:25:08;;;;;;;1.63;1.50;;;10.30;82.00;;;9.95;71.25;98361.59;5050820;28;20458;-69
2023/02/19 09:27:37;;;;;;;1.60;1.43;;;10.20;82.30;;;9.97;71.63;98365.75;5040534;28;20996;-70
2023/02/19 09:30:04;;;;;;;1.60;1.50;;;10.30;82.50;;;10.10;70.86;98370.38;5044431;28;20453;-70
2023/02/19 09:32:32;;;;;;;2.03;1.50;;;10.40;82.30;;;10.05;70.56;98372.81;5056333;28;20463;-70
2023/02/19 09:34:59;;;;;;;2.20;1.90;;;10.30;82.30;;;10.01;70.76;98385.91;5041903;28;20491;-68
2023/02/19 09:37:27;;;;;;;2.40;1.90;;;10.30;82.40;;;9.76;71.74;98385.59;5047003;28;20455;-69
2023/02/19 09:39:55;;;;;;;2.30;2.10;;;10.20;82.30;;;9.91;71.23;98388.97;5057063;28;20452;-69
2023/02/19 09:42:25;;;;;;;1.70;1.60;;;10.20;82.70;;;9.92;71.24;98400.63;5041924;28;20463;-70
2023/02/19 09:44:58;;;;;;;2.90;2.00;;;10.20;82.60;;;9.84;71.82;98390.84;5039783;28;20454;-71
2023/02/19 09:47:28;;;;;;;3.80;2.10;;;10.20;82.70;;;10.03;70.92;98388.41;5038655;28;20450;-70
2023/02/19 09:50:00;;;;;;;2.00;1.77;;;10.20;82.60;;;10.20;70.59;98400.50;5053128;28;20459;-70
2023/02/19 09:52:34;;;;;;;2.03;1.87;;;10.40;82.40;;;10.20;71.00;98391.56;5045258;28;20470;-70
2023/02/19 09:55:14;;;;;;;2.33;2.00;;;10.40;82.40;;;10.07;71.16;98392.34;5034531;28;20585;-70
2023/02/19 09:57:42;;;;;;;2.40;2.20;;;10.30;82.50;;;10.06;71.12;98396.09;5044892;28;20461;-70
2023/02/19 10:00:22;;;;;;;1.97;1.63;;;10.30;82.80;;;9.92;72.13;98390.63;5039925;28;20440;-71
2023/02/19 10:02:53;;;;;;;2.90;2.13;;;10.20;82.90;;;9.86;72.69;98386.06;5043179;28;20475;-70
2023/02/19 10:05:23;;;;;;;3.60;2.37;;;10.20;83.00;;;9.74;72.86;98385.81;5039305;28;20463;-72
2023/02/19 10:07:54;;;;;;;2.60;2.40;;;10.20;83.30;;;9.76;73.38;98407.19;5042478;28;20465;-70
2023/02/19 10:10:30;;;;;;;2.60;2.40;;;10.10;83.60;;;9.63;73.47;98387.22;5053280;28;20471;-70
2023/02/19 10:13:13;;;;;;;2.30;2.10;;;10.00;84.00;;;9.86;74.01;98407.66;5063771;28;20455;-71
2023/02/19 10:15:49;;;;;;;2.70;2.50;;;10.10;84.70;;;9.84;73.07;98404.31;5039826;28;20485;-71
2023/02/19 10:18:19;;;;;;;2.30;1.60;;;10.20;84.00;;;9.72;73.78;98395.13;5034341;28;20473;-70
2023/02/19 10:20:47;;;;;;;4.67;2.10;;;10.10;84.00;;;9.80;72.64;98407.63;5059439;28;20442;-70
2023/02/19 10:23:16;;;;;;;2.27;1.97;;;10.10;83.60;;;9.96;72.07;98407.28;5054563;28;21033;-71
2023/02/19 10:25:49;;;;;;;3.50;3.00;;;10.20;83.80;;;10.07;72.59;98411.25;5038037;28;20471;-71
2023/02/19 10:28:20;;;;;;;2.33;2.00;;;10.20;83.60;;;10.17;71.40;98413.59;5055581;28;20534;-71
2023/02/19 10:30:54;;;;;;;3.03;2.30;;;10.30;83.20;;;10.08;71.19;98421.00;5049300;28;20450;-71
2023/02/19 10:33:22;;;;;;;2.03;1.90;;;10.40;82.80;;;10.21;70.37;98420.25;5047484;28;20503;-70
2023/02/19 10:35:56;;;;;;;3.73;2.50;;;10.40;82.50;;;10.13;70.81;98413.16;5046675;28;20573;-71
2023/02/19 10:38:28;;;;;;;2.53;1.90;;;10.40;82.20;;;10.08;70.63;98421.00;5042549;28;20460;-70
2023/02/19 10:41:05;;;;;;;2.73;1.80;;;10.50;81.90;;;10.17;70.96;98419.81;5062512;28;20460;-70
2023/02/19 10:43:38;;;;;;;3.00;2.10;;;10.40;82.20;;;10.12;69.89;98411.50;5039020;28;20462;-70
2023/02/19 10:46:15;;;;;;;2.33;2.00;;;10.50;81.80;;;10.15;69.94;98421.88;5042505;28;20451;-70
2023/02/19 10:48:51;;;;;;;2.80;2.13;;;10.50;81.70;;;10.24;70.02;98424.41;5047087;28;20460;-72
2023/02/19 10:51:21;;;;;;;2.90;2.40;;;10.50;81.50;;;10.29;71.24;98438.13;5057302;28;20444;-72
2023/02/19 10:53:51;;;;;;;2.23;2.00;;;10.50;82.40;;;9.74;73.30;98430.84;5043288;28;20965;-71
2023/02/19 10:56:25;;;;;;;3.13;2.40;;;10.20;83.30;;;9.49;73.96;98428.66;5038853;28;20507;-71
2023/02/19 10:58:52;;;;;;;4.03;2.40;;;9.90;85.20;;;9.40;75.14;98429.81;5045440;28;21161;-71
2023/02/19 11:01:24;;;;;;;3.00;2.00;;;9.80;85.80;;;9.39;74.83;98433.56;5046808;28;20919;-70
2023/02/19 11:03:53;;;;;;;3.90;2.90;;;9.80;85.70;;;9.53;74.07;98438.00;5043647;28;20541;-69
2023/02/19 11:06:26;;;;;;;3.80;2.20;;;9.80;85.30;;;9.20;75.19;98441.31;5044489;28;20937;-70
2023/02/19 11:08:57;;;;;;;3.77;2.97;;;9.70;85.50;;;9.26;76.63;98435.13;5045939;28;20455;-70